Palmer, AK (99645)

6:29 PM AKDT on September 03, 2015 (GMT -0800)
Gold-Key Estates | | Change Station
CLOSE
Current Station
Personal Weather Station
Location: Palmer, AK
Elevation: 203 ft
Nearby Weather Stations

Elev 203 ft 61.62 °N, 149.10 °W | Updated 9 minutes ago

Light Rain
Light Rain
50.4 °F
Feels Like 50.4 °F
N
0.0
Wind Variable Wind from East

Today
High -- | Low -- °F
--% Chance of Precip.
Yesterday
High -- | Low -- °F
Precip. -- in
6:52 AM 8:57 PM
Waning Gibbous, 64% visible
Pressure 29.90 in
Visibility 10.0 miles
Clouds Overcast 6500 ft
Dew Point 49 °F
Humidity 94%
Rainfall 0.02 in
Snow Depth Not available.
UV 0 out of 12
Pollen Not available.
Air Quality Not available.
Flu Activity Not available.
METAR PAAQ 040153Z 09010KT 10SM -RA OVC065 10/07 A2989 RMK AO2 SLP124 P0001 T01000067
Pressure 29.90 in
Visibility 10.0 miles
Clouds Overcast 6500 ft
Dew Point 49 °F
Humidity 94%
Rainfall 0.02 in
Snow Depth Not available.
UV 0 out of 12
Pollen Not available.
Air Quality Not available.
Flu Activity Not available.
METAR PAAQ 040153Z 09010KT 10SM -RA OVC065 10/07 A2989 RMK AO2 SLP124 P0001 T01000067

10-Day Weather Forecast

×

Almanac

Astronomy

Sep. 03, 2015 Rise Set
Actual Time
Civil Twilight
Nautical Twilight
Astronomical Twilight
Moon
Length of Visible Light
Length of Day
Tomorrow will be .
, % of the Moon is Illuminated

Today's Extremes

State Highs State Lows

Community

WunderPhotos

Upload Photos

1,852,101 photos uploaded!

WunderBlogs® & News

Nearby

Air Quality

  Air Quality AQ Index Pollutant
Not available.

Snow Depth

Station Depth Elevation

Earthquake Activity

City Distance Mag. Time & Date
Minimum magnitude displayed is 2.5.

Coastal Water Temperatures

Place Temperature

Stations

Nearby Weather Stations

Station Location Temp. Windchill Dew Point Humidity Wind Precip. Elev Updated Type